KGSB/GSB METAR and TAF weather

Enter ICAO airport designator
Station Type Date Time Source
KGSB METAR 2019/06/26 20:56 UTC NOAA

KGSB 262056Z AUTO 36007KT 10SM CLR 32/16 A3007 RMK AO2 SLP185 T03210155 55005 $


Station Type Date Time Source
KGSB Decoded METAR 2019/06/26 20:56 UTC NOAA

Seymour-Johnson Air Force Base, NC, United States (KGSB) 35-20N 077-58W
Jun 26, 2019 - 04:56 PM EDT / 2019.06.26 2056 UTC
Wind: from the N (360 degrees) at 8 MPH (7 KT):0
Visibility: 10 mile(s):0
Sky conditions: clear
Temperature: 89.8 F (32.1 C)
Dew Point: 59.9 F (15.5 C)
Relative Humidity: 36%
Pressure (altimeter): 30.07 in. Hg (1018 hPa)
Pressure tendency: 0.01 inches (0.5 hPa) lower than three hours ago
ob: KGSB 262056Z AUTO 36007KT 10SM CLR 32/16 A3007 RMK AO2 SLP185 T03210155 55005
cycle: 21

Station Type Date Time Source
KGSB TAF 2019/06/26 20:58 UTC NOAA

TAF KGSB 261951Z 2620/2802 03006KT 9999 FEW050 SCT200 QNH3001INS
BECMG 2623/2624 VRB04KT 9999 SCT200 QNH3002INS
BECMG 2707/2708 12005KT 9999 FEW055 SCT200 QNH3005INS TX34/2719Z TN21/2710Z

Example: see airport list